sensor_id;sensor_type;location;lat;lon;timestamp;pressure;altitude;pressure_sealevel;temperature;humidity
45113;BME280;30873;53.908;27.576;2023-02-28T00:01:09;1029.8;;;-0.7;62.2
45113;BME280;30873;53.908;27.576;2023-02-28T00:07:01;1029.7;;;-0.7;62.2
45113;BME280;30873;53.908;27.576;2023-02-28T00:11:10;1029.7;;;-0.7;62.3
45113;BME280;30873;53.908;27.576;2023-02-28T00:16:51;1029.7;;;-0.7;62.4
45113;BME280;30873;53.908;27.576;2023-02-28T00:21:29;1029.7;;;-0.7;62.4
45113;BME280;30873;53.908;27.576;2023-02-28T00:26:37;1029.7;;;-0.8;62.5
45113;BME280;30873;53.908;27.576;2023-02-28T00:32:00;1029.6;;;-0.8;62.6
45113;BME280;30873;53.908;27.576;2023-02-28T00:36:23;1029.6;;;-0.8;62.6
45113;BME280;30873;53.908;27.576;2023-02-28T00:41:37;1029.5;;;-0.7;62.5
45113;BME280;30873;53.908;27.576;2023-02-28T00:46:49;1029.6;;;-0.7;62.7
45113;BME280;30873;53.908;27.576;2023-02-28T00:52:01;1029.6;;;-0.7;62.6
45113;BME280;30873;53.908;27.576;2023-02-28T00:56:31;1029.6;;;-0.7;62.6
45113;BME280;30873;53.908;27.576;2023-02-28T01:01:59;1029.6;;;-0.8;62.7
45113;BME280;30873;53.908;27.576;2023-02-28T01:06:23;1029.6;;;-0.9;63.1
45113;BME280;30873;53.908;27.576;2023-02-28T01:11:23;1029.6;;;-1;63.4
45113;BME280;30873;53.908;27.576;2023-02-28T01:16:59;1029.6;;;-1.1;63.5
45113;BME280;30873;53.908;27.576;2023-02-28T01:21:31;1029.7;;;-1.4;64
45113;BME280;30873;53.908;27.576;2023-02-28T01:26:59;1029.6;;;-1.6;64.5
45113;BME280;30873;53.908;27.576;2023-02-28T01:31:41;1029.6;;;-1.6;64.8
45113;BME280;30873;53.908;27.576;2023-02-28T01:36:22;1029.5;;;-1.7;65.1
45113;BME280;30873;53.908;27.576;2023-02-28T01:41:57;1029.5;;;-1.7;65.2
45113;BME280;30873;53.908;27.576;2023-02-28T01:46:47;1029.5;;;-1.8;65.4
45113;BME280;30873;53.908;27.576;2023-02-28T01:52:01;1029.4;;;-1.8;65.5
45113;BME280;30873;53.908;27.576;2023-02-28T01:56:44;1029.5;;;-1.9;65.7
45113;BME280;30873;53.908;27.576;2023-02-28T02:01:21;1029.5;;;-2;65.8
45113;BME280;30873;53.908;27.576;2023-02-28T02:07:01;1029.6;;;-2.1;66.1
45113;BME280;30873;53.908;27.576;2023-02-28T02:11:09;1029.6;;;-2.1;66.3
45113;BME280;30873;53.908;27.576;2023-02-28T02:17:04;1029.6;;;-2.1;66.4
45113;BME280;30873;53.908;27.576;2023-02-28T02:26:18;1029.7;;;-2.4;66.9
45113;BME280;30873;53.908;27.576;2023-02-28T02:33:06;1029.8;;;-2.4;67.1
45113;BME280;30873;53.908;27.576;2023-02-28T02:36:48;1029.8;;;-2.5;67.2
45113;BME280;30873;53.908;27.576;2023-02-28T02:42:00;1029.8;;;-2.6;67.5
45113;BME280;30873;53.908;27.576;2023-02-28T02:46:45;1029.7;;;-2.6;67.7
45113;BME280;30873;53.908;27.576;2023-02-28T02:51:51;1029.7;;;-2.7;67.9
45113;BME280;30873;53.908;27.576;2023-02-28T02:57:00;1029.7;;;-2.7;68.1
45113;BME280;30873;53.908;27.576;2023-02-28T03:01:29;1029.6;;;-2.7;68.2
45113;BME280;30873;53.908;27.576;2023-02-28T03:06:37;1029.6;;;-2.8;68.3
45113;BME280;30873;53.908;27.576;2023-02-28T03:11:43;1029.6;;;-2.8;68.4
45113;BME280;30873;53.908;27.576;2023-02-28T03:16:26;1029.5;;;-2.8;68.5
45113;BME280;30873;53.908;27.576;2023-02-28T03:22:06;1029.6;;;-2.9;68.5
45113;BME280;30873;53.908;27.576;2023-02-28T03:26:31;1029.5;;;-2.9;68.6
45113;BME280;30873;53.908;27.576;2023-02-28T03:32:00;1029.5;;;-2.9;68.7
45113;BME280;30873;53.908;27.576;2023-02-28T03:36:42;1029.5;;;-3;68.8
45113;BME280;30873;53.908;27.576;2023-02-28T03:41:23;1029.5;;;-3;68.8
45113;BME280;30873;53.908;27.576;2023-02-28T03:47:00;1029.5;;;-3;68.9
45113;BME280;30873;53.908;27.576;2023-02-28T03:51:29;1029.5;;;-3.1;68.9
45113;BME280;30873;53.908;27.576;2023-02-28T03:56:59;1029.4;;;-3.1;68.9
45113;BME280;30873;53.908;27.576;2023-02-28T04:01:44;1029.3;;;-3.2;69
45113;BME280;30873;53.908;27.576;2023-02-28T04:06:37;1029.3;;;-3.1;69.1
45113;BME280;30873;53.908;27.576;2023-02-28T04:12:01;1029.3;;;-3.1;69
45113;BME280;30873;53.908;27.576;2023-02-28T04:16:09;1029.3;;;-3.1;69
45113;BME280;30873;53.908;27.576;2023-02-28T04:22:01;1029.2;;;-3.1;68.8
45113;BME280;30873;53.908;27.576;2023-02-28T04:26:29;1029.3;;;-3.2;68.9
45113;BME280;30873;53.908;27.576;2023-02-28T04:31:23;1029.2;;;-3.2;68.9
45113;BME280;30873;53.908;27.576;2023-02-28T04:36:59;1029.2;;;-3.3;68.9
45113;BME280;30873;53.908;27.576;2023-02-28T04:41:31;1029.2;;;-3.3;69.1
45113;BME280;30873;53.908;27.576;2023-02-28T04:46:59;1029.2;;;-3.3;69.1
45113;BME280;30873;53.908;27.576;2023-02-28T04:51:35;1029.2;;;-3.2;69
45113;BME280;30873;53.908;27.576;2023-02-28T04:56:19;1029.2;;;-3.2;68.9
45113;BME280;30873;53.908;27.576;2023-02-28T05:01:57;1029.2;;;-3.2;68.9
45113;BME280;30873;53.908;27.576;2023-02-28T05:06:31;1029.2;;;-3.2;68.7
45113;BME280;30873;53.908;27.576;2023-02-28T05:11:59;1029.2;;;-3.1;68.7
45113;BME280;30873;53.908;27.576;2023-02-28T05:16:43;1029.2;;;-3;68.7
45113;BME280;30873;53.908;27.576;2023-02-28T05:21:49;1029.2;;;-2.9;68.5
45113;BME280;30873;53.908;27.576;2023-02-28T05:26:43;1029.1;;;-2.9;68.2
45113;BME280;30873;53.908;27.576;2023-02-28T05:31:29;1029.1;;;-2.8;68
45113;BME280;30873;53.908;27.576;2023-02-28T05:36:59;1029.1;;;-2.7;67.9
45113;BME280;30873;53.908;27.576;2023-02-28T05:41:41;1029;;;-2.6;67.6
45113;BME280;30873;53.908;27.576;2023-02-28T05:46:10;1029;;;-2.5;67.6
45113;BME280;30873;53.908;27.576;2023-02-28T05:51:29;1029;;;-2.4;67.4
45113;BME280;30873;53.908;27.576;2023-02-28T05:56:45;1029;;;-2.3;66.9
45113;BME280;30873;53.908;27.576;2023-02-28T06:01:57;1028.9;;;-2.2;66.6
45113;BME280;30873;53.908;27.576;2023-02-28T06:06:41;1028.8;;;-2.2;66.2
45113;BME280;30873;53.908;27.576;2023-02-28T06:11:19;1028.8;;;-2.1;66
45113;BME280;30873;53.908;27.576;2023-02-28T06:16:41;1028.8;;;-1.9;65.8
45113;BME280;30873;53.908;27.576;2023-02-28T06:21:45;1028.8;;;-1.7;65.3
45113;BME280;30873;53.908;27.576;2023-02-28T06:26:59;1028.7;;;-1.6;64.8
45113;BME280;30873;53.908;27.576;2023-02-28T06:31:41;1028.6;;;-1.4;64.4
45113;BME280;30873;53.908;27.576;2023-02-28T06:36:33;1028.6;;;-1.3;63.9
45113;BME280;30873;53.908;27.576;2023-02-28T06:41:43;1028.6;;;-1.3;63.3
45113;BME280;30873;53.908;27.576;2023-02-28T06:46:17;1028.6;;;-1.3;63.2
45113;BME280;30873;53.908;27.576;2023-02-28T06:51:45;1028.5;;;-1.2;63.2
45113;BME280;30873;53.908;27.576;2023-02-28T06:56:41;1028.5;;;-1.1;63.1
45113;BME280;30873;53.908;27.576;2023-02-28T07:01:09;1028.5;;;-1;62.5
45113;BME280;30873;53.908;27.576;2023-02-28T07:06:41;1028.5;;;-0.9;62.6
45113;BME280;30873;53.908;27.576;2023-02-28T07:11:29;1028.5;;;-0.7;62.3
45113;BME280;30873;53.908;27.576;2023-02-28T07:16:59;1028.5;;;-0.3;62.2
45113;BME280;30873;53.908;27.576;2023-02-28T07:21:43;1028.5;;;0;61.9
45113;BME280;30873;53.908;27.576;2023-02-28T07:26:35;1028.5;;;0.3;61.2
45113;BME280;30873;53.908;27.576;2023-02-28T07:31:43;1028.4;;;0.5;60.1
45113;BME280;30873;53.908;27.576;2023-02-28T07:36:17;1028.4;;;0.5;59.8
45113;BME280;30873;53.908;27.576;2023-02-28T07:41:59;1028.4;;;0.8;59.4
45113;BME280;30873;53.908;27.576;2023-02-28T07:46:33;1028.4;;;1;58.7
45113;BME280;30873;53.908;27.576;2023-02-28T07:51:09;1028.4;;;1.1;58.6
45113;BME280;30873;53.908;27.576;2023-02-28T07:56:41;1028.4;;;1.2;58.3
45113;BME280;30873;53.908;27.576;2023-02-28T08:01:25;1028.3;;;1.3;57.9
45113;BME280;30873;53.908;27.576;2023-02-28T08:06:59;1028.3;;;1.4;57.2
45113;BME280;30873;53.908;27.576;2023-02-28T08:11:41;1028.2;;;1.3;57.7
45113;BME280;30873;53.908;27.576;2023-02-28T08:16:19;1028.2;;;1.5;57.3
45113;BME280;30873;53.908;27.576;2023-02-28T08:21:41;1028.2;;;1.5;57.4
45113;BME280;30873;53.908;27.576;2023-02-28T08:26:29;1028.2;;;1.9;56.9
45113;BME280;30873;53.908;27.576;2023-02-28T08:31:57;1028.2;;;2.3;56
45113;BME280;30873;53.908;27.576;2023-02-28T08:36:41;1028.1;;;2.7;55.5
45113;BME280;30873;53.908;27.576;2023-02-28T08:41:10;1028.1;;;3;54.5
45113;BME280;30873;53.908;27.576;2023-02-28T08:46:27;1028.1;;;3.2;53.8
45113;BME280;30873;53.908;27.576;2023-02-28T08:51:10;1028;;;3.4;53
45113;BME280;30873;53.908;27.576;2023-02-28T08:56:57;1028;;;3.6;52.3
45113;BME280;30873;53.908;27.576;2023-02-28T09:01:18;1028;;;4;51.3
45113;BME280;30873;53.908;27.576;2023-02-28T09:06:09;1028;;;4.1;50.6
45113;BME280;30873;53.908;27.576;2023-02-28T09:11:41;1028;;;4.4;49.9
45113;BME280;30873;53.908;27.576;2023-02-28T09:16:19;1027.9;;;4.8;49
45113;BME280;30873;53.908;27.576;2023-02-28T09:21:57;1027.9;;;4.9;47.9
45113;BME280;30873;53.908;27.576;2023-02-28T09:26:12;1027.7;;;5.2;47.4
45113;BME280;30873;53.908;27.576;2023-02-28T09:31:11;1027.6;;;6.5;45
45113;BME280;30873;53.908;27.576;2023-02-28T09:36:41;1027.5;;;7.4;42.7
45113;BME280;30873;53.908;27.576;2023-02-28T09:41:11;1027.5;;;8.3;40.3
45113;BME280;30873;53.908;27.576;2023-02-28T09:46:58;1027.5;;;8.3;38.9
45113;BME280;30873;53.908;27.576;2023-02-28T09:51:32;1027.4;;;8.6;39.2
45113;BME280;30873;53.908;27.576;2023-02-28T09:56:10;1027.4;;;9.3;37.7
45113;BME280;30873;53.908;27.576;2023-02-28T10:01:42;1027.5;;;9.4;37.2
45113;BME280;30873;53.908;27.576;2023-02-28T10:06:29;1027.5;;;9.5;36.7
45113;BME280;30873;53.908;27.576;2023-02-28T10:12:00;1027.5;;;10.2;35.8
45113;BME280;30873;53.908;27.576;2023-02-28T10:16:10;1027.5;;;10.7;34.8
45113;BME280;30873;53.908;27.576;2023-02-28T10:21:20;1027.5;;;11.4;34.1
45113;BME280;30873;53.908;27.576;2023-02-28T10:26:39;1027.4;;;11.6;33.2
45113;BME280;30873;53.908;27.576;2023-02-28T10:31:29;1027.2;;;12.1;32.2
45113;BME280;30873;53.908;27.576;2023-02-28T10:36:57;1027.1;;;12;32.2
45113;BME280;30873;53.908;27.576;2023-02-28T10:41:30;1026.9;;;12.1;32.2
45113;BME280;30873;53.908;27.576;2023-02-28T10:46:11;1026.7;;;12.5;31.8
45113;BME280;30873;53.908;27.576;2023-02-28T10:51:41;1026.6;;;12.5;30.8
45113;BME280;30873;53.908;27.576;2023-02-28T10:56:32;1026.5;;;12.6;31.1
45113;BME280;30873;53.908;27.576;2023-02-28T11:01:57;1026.4;;;12.6;30.2
45113;BME280;30873;53.908;27.576;2023-02-28T11:06:28;1026.3;;;13.1;30.1
45113;BME280;30873;53.908;27.576;2023-02-28T11:11:20;1026.2;;;12.8;29.7
45113;BME280;30873;53.908;27.576;2023-02-28T11:16:58;1026.2;;;13;30
45113;BME280;30873;53.908;27.576;2023-02-28T11:21:21;1026.1;;;13.1;29.4
45113;BME280;30873;53.908;27.576;2023-02-28T11:26:55;1026.1;;;13.1;29.4
45113;BME280;30873;53.908;27.576;2023-02-28T11:31:29;1025.9;;;13.8;28.6
45113;BME280;30873;53.908;27.576;2023-02-28T11:36:10;1025.9;;;14;28
45113;BME280;30873;53.908;27.576;2023-02-28T11:41:35;1025.6;;;13.5;28.2
45113;BME280;30873;53.908;27.576;2023-02-28T11:46:27;1025.6;;;13.5;28.2
45113;BME280;30873;53.908;27.576;2023-02-28T11:51:58;1025.6;;;14;28.2
45113;BME280;30873;53.908;27.576;2023-02-28T11:56:19;1025.6;;;14.3;28.1
45113;BME280;30873;53.908;27.576;2023-02-28T12:01:28;1025.5;;;14.4;28.1
45113;BME280;30873;53.908;27.576;2023-02-28T12:06:40;1025.5;;;14.5;28
45113;BME280;30873;53.908;27.576;2023-02-28T12:11:25;1025.5;;;14.6;28
45113;BME280;30873;53.908;27.576;2023-02-28T12:17:01;1025.3;;;14.6;28.2
45113;BME280;30873;53.908;27.576;2023-02-28T12:21:18;1025.3;;;15.2;27.9
45113;BME280;30873;53.908;27.576;2023-02-28T12:26:36;1025.1;;;16;26.9
45113;BME280;30873;53.908;27.576;2023-02-28T12:31:45;1025.1;;;16.4;26.7
45113;BME280;30873;53.908;27.576;2023-02-28T12:36:31;1024.9;;;16.5;26.1
45113;BME280;30873;53.908;27.576;2023-02-28T12:42:00;1024.8;;;16.7;26.1
45113;BME280;30873;53.908;27.576;2023-02-28T12:46:18;1024.7;;;16.3;25.4
45113;BME280;30873;53.908;27.576;2023-02-28T12:51:09;1024.5;;;15;26.6
45113;BME280;30873;53.908;27.576;2023-02-28T12:56:44;1024.6;;;15.3;26.6
45113;BME280;30873;53.908;27.576;2023-02-28T13:01:31;1024.6;;;15.7;26.3
45113;BME280;30873;53.908;27.576;2023-02-28T13:06:40;1024.6;;;16.1;26
45113;BME280;30873;53.908;27.576;2023-02-28T13:11:24;1024.5;;;16.2;25.6
45113;BME280;30873;53.908;27.576;2023-02-28T13:16:21;1024.5;;;15.3;26.3
45113;BME280;30873;53.908;27.576;2023-02-28T13:21:57;1024.4;;;15.3;26.6
45113;BME280;30873;53.908;27.576;2023-02-28T13:26:09;1024.3;;;15.5;26.5
45113;BME280;30873;53.908;27.576;2023-02-28T13:32:18;1024.3;;;15.5;26.4
45113;BME280;30873;53.908;27.576;2023-02-28T13:36:31;1024.2;;;14.6;27.3
45113;BME280;30873;53.908;27.576;2023-02-28T13:41:54;1024.3;;;14.2;27.9
45113;BME280;30873;53.908;27.576;2023-02-28T13:47:31;1024.2;;;13.8;28.4
45113;BME280;30873;53.908;27.576;2023-02-28T13:51:39;1024.1;;;13.6;28.9
45113;BME280;30873;53.908;27.576;2023-02-28T13:56:47;1024.1;;;13.5;29
45113;BME280;30873;53.908;27.576;2023-02-28T14:01:35;1024.1;;;13.4;29.5
45113;BME280;30873;53.908;27.576;2023-02-28T14:06:13;1023.9;;;14.8;28.1
45113;BME280;30873;53.908;27.576;2023-02-28T14:12:18;1023.8;;;14.3;28.4
45113;BME280;30873;53.908;27.576;2023-02-28T14:16:23;1023.5;;;14.4;28.4
45113;BME280;30873;53.908;27.576;2023-02-28T14:22:02;1023.5;;;14.2;28.3
45113;BME280;30873;53.908;27.576;2023-02-28T14:26:32;1023.4;;;13.1;29.6
45113;BME280;30873;53.908;27.576;2023-02-28T14:31:36;1023.5;;;10.5;33.5
45113;BME280;30873;53.908;27.576;2023-02-28T14:37:00;1023.7;;;8.9;36.1
45113;BME280;30873;53.908;27.576;2023-02-28T14:41:36;1023.8;;;7.8;38.1
45113;BME280;30873;53.908;27.576;2023-02-28T14:46:48;1023.8;;;7.2;39.3
45113;BME280;30873;53.908;27.576;2023-02-28T14:51:29;1023.8;;;6.8;40.6
45113;BME280;30873;53.908;27.576;2023-02-28T14:56:48;1023.8;;;6.5;41.4
45113;BME280;30873;53.908;27.576;2023-02-28T15:02:14;1023.9;;;6.1;42.3
45113;BME280;30873;53.908;27.576;2023-02-28T15:06:21;1023.9;;;5.7;43.2
45113;BME280;30873;53.908;27.576;2023-02-28T15:11:49;1024;;;5.4;44.4
45113;BME280;30873;53.908;27.576;2023-02-28T15:16:18;1024;;;5.3;44.9
45113;BME280;30873;53.908;27.576;2023-02-28T15:21:24;1024;;;5.1;45.5
45113;BME280;30873;53.908;27.576;2023-02-28T15:27:00;1023.9;;;5;46.2
45113;BME280;30873;53.908;27.576;2023-02-28T15:31:26;1023.9;;;4.8;46.8
45113;BME280;30873;53.908;27.576;2023-02-28T15:36:47;1024;;;4.5;47.6
45113;BME280;30873;53.908;27.576;2023-02-28T15:41:36;1024;;;4.5;48
45113;BME280;30873;53.908;27.576;2023-02-28T15:46:37;1024.1;;;4.3;48.6
45113;BME280;30873;53.908;27.576;2023-02-28T15:51:59;1024;;;4.2;49.2
45113;BME280;30873;53.908;27.576;2023-02-28T15:56:22;1024;;;4.1;49.8
45113;BME280;30873;53.908;27.576;2023-02-28T16:02:01;1024;;;4.1;49.8
45113;BME280;30873;53.908;27.576;2023-02-28T16:06:20;1023.9;;;4.2;49.9
45113;BME280;30873;53.908;27.576;2023-02-28T16:11:21;1023.9;;;4.2;49.9
45113;BME280;30873;53.908;27.576;2023-02-28T16:17:02;1023.9;;;4.1;50.2
45113;BME280;30873;53.908;27.576;2023-02-28T16:21:37;1023.9;;;4.2;50.1
45113;BME280;30873;53.908;27.576;2023-02-28T16:26:48;1024;;;4.2;50.2
45113;BME280;30873;53.908;27.576;2023-02-28T16:31:32;1024.1;;;4.2;50.1
45113;BME280;30873;53.908;27.576;2023-02-28T16:36:22;1024.1;;;4.3;50.2
45113;BME280;30873;53.908;27.576;2023-02-28T16:41:57;1024.1;;;4.3;50.2
45113;BME280;30873;53.908;27.576;2023-02-28T16:46:37;1024;;;4.3;50.3
45113;BME280;30873;53.908;27.576;2023-02-28T16:51:47;1024;;;4.3;50.4
45113;BME280;30873;53.908;27.576;2023-02-28T16:56:31;1024;;;4.3;50.6
45113;BME280;30873;53.908;27.576;2023-02-28T17:01:09;1023.9;;;4.3;50.8
45113;BME280;30873;53.908;27.576;2023-02-28T17:06:59;1023.8;;;4.3;51
45113;BME280;30873;53.908;27.576;2023-02-28T17:11:09;1023.8;;;4.3;51.1
45113;BME280;30873;53.908;27.576;2023-02-28T17:17:00;1023.9;;;4.4;51.2
45113;BME280;30873;53.908;27.576;2023-02-28T17:21:47;1023.8;;;4.4;51.4
45113;BME280;30873;53.908;27.576;2023-02-28T17:26:57;1023.8;;;4.3;51.9
45113;BME280;30873;53.908;27.576;2023-02-28T17:31:19;1023.8;;;4.3;52.5
45113;BME280;30873;53.908;27.576;2023-02-28T17:36:33;1023.8;;;4.3;52.8
45113;BME280;30873;53.908;27.576;2023-02-28T17:42:00;1023.7;;;4.3;53.2
45113;BME280;30873;53.908;27.576;2023-02-28T17:46:37;1023.7;;;4.3;53.7
45113;BME280;30873;53.908;27.576;2023-02-28T17:51:59;1023.7;;;4.3;54
45113;BME280;30873;53.908;27.576;2023-02-28T17:56:33;1023.6;;;4.3;54.5
45113;BME280;30873;53.908;27.576;2023-02-28T18:01:31;1023.6;;;4.3;55
45113;BME280;30873;53.908;27.576;2023-02-28T18:06:57;1023.6;;;4.3;55.4
45113;BME280;30873;53.908;27.576;2023-02-28T18:11:45;1023.5;;;4.3;55.3
45113;BME280;30873;53.908;27.576;2023-02-28T18:16:59;1023.4;;;4.2;55.3
45113;BME280;30873;53.908;27.576;2023-02-28T18:21:31;1023.4;;;4.2;55.5
45113;BME280;30873;53.908;27.576;2023-02-28T18:26:21;1023.2;;;4.1;55.9
45113;BME280;30873;53.908;27.576;2023-02-28T18:31:57;1023.1;;;4.2;55.7
45113;BME280;30873;53.908;27.576;2023-02-28T18:36:47;1023;;;4.2;55.6
45113;BME280;30873;53.908;27.576;2023-02-28T18:41:59;1022.9;;;4.2;55.8
45113;BME280;30873;53.908;27.576;2023-02-28T18:46:10;1022.8;;;4.2;56.3
45113;BME280;30873;53.908;27.576;2023-02-28T18:51:33;1022.7;;;4.1;56.8
45113;BME280;30873;53.908;27.576;2023-02-28T18:56:57;1022.5;;;4.1;57.2
45113;BME280;30873;53.908;27.576;2023-02-28T19:01:45;1022.4;;;4.1;58
45113;BME280;30873;53.908;27.576;2023-02-28T19:06:59;1022.4;;;4;58.9
45113;BME280;30873;53.908;27.576;2023-02-28T19:11:34;1022.2;;;3.9;59.9
45113;BME280;30873;53.908;27.576;2023-02-28T19:16:10;1022.1;;;3.7;60.9
45113;BME280;30873;53.908;27.576;2023-02-28T19:21:59;1022.1;;;3.7;61.4
45113;BME280;30873;53.908;27.576;2023-02-28T19:26:43;1022.1;;;3.7;61.6
45113;BME280;30873;53.908;27.576;2023-02-28T19:31:57;1022;;;3.8;61.6
45113;BME280;30873;53.908;27.576;2023-02-28T19:36:33;1021.9;;;3.8;62
45113;BME280;30873;53.908;27.576;2023-02-28T19:41:10;1021.7;;;3.9;62.3
45113;BME280;30873;53.908;27.576;2023-02-28T19:46:59;1021.6;;;3.9;62.9
45113;BME280;30873;53.908;27.576;2023-02-28T19:51:47;1021.6;;;3.8;63.7
45113;BME280;30873;53.908;27.576;2023-02-28T19:56:57;1021.5;;;3.8;64.1
45113;BME280;30873;53.908;27.576;2023-02-28T20:01:31;1021.5;;;3.9;64.3
45113;BME280;30873;53.908;27.576;2023-02-28T20:06:10;1021.5;;;4;64.7
45113;BME280;30873;53.908;27.576;2023-02-28T20:11:59;1021.4;;;4;64.6
45113;BME280;30873;53.908;27.576;2023-02-28T20:16:12;1021.4;;;4.1;64.8
45113;BME280;30873;53.908;27.576;2023-02-28T20:21:57;1021.4;;;4.2;64.7
45113;BME280;30873;53.908;27.576;2023-02-28T20:26:09;1021.3;;;4.1;65
45113;BME280;30873;53.908;27.576;2023-02-28T20:31:33;1021.2;;;4.1;65.4
45113;BME280;30873;53.908;27.576;2023-02-28T20:36:59;1021.2;;;4.1;65.7
45113;BME280;30873;53.908;27.576;2023-02-28T20:41:47;1021.1;;;4.1;65.8
45113;BME280;30873;53.908;27.576;2023-02-28T20:46:59;1021.2;;;4.2;65.9
45113;BME280;30873;53.908;27.576;2023-02-28T20:51:33;1021.2;;;4.2;66.1
45113;BME280;30873;53.908;27.576;2023-02-28T20:56:31;1021.2;;;4.2;66.1
45113;BME280;30873;53.908;27.576;2023-02-28T21:01:59;1021.3;;;4.2;66.3
45113;BME280;30873;53.908;27.576;2023-02-28T21:06:47;1021.2;;;4.1;66.7
45113;BME280;30873;53.908;27.576;2023-02-28T21:11:57;1021.3;;;4.2;66.8
45113;BME280;30873;53.908;27.576;2023-02-28T21:16:19;1021.2;;;4.2;67
45113;BME280;30873;53.908;27.576;2023-02-28T21:21:23;1021.1;;;4.2;67
45113;BME280;30873;53.908;27.576;2023-02-28T21:26:20;1021.1;;;4.3;66.9
45113;BME280;30873;53.908;27.576;2023-02-28T21:31:48;1021.1;;;4.4;66.6
45113;BME280;30873;53.908;27.576;2023-02-28T21:36:57;1021.1;;;4.3;66.5
45113;BME280;30873;53.908;27.576;2023-02-28T21:41:10;1021.1;;;4.3;66.7
45113;BME280;30873;53.908;27.576;2023-02-28T21:46:31;1021.1;;;4.3;66.8
45113;BME280;30873;53.908;27.576;2023-02-28T21:51:43;1021.1;;;4.3;66.9
45113;BME280;30873;53.908;27.576;2023-02-28T21:56:47;1021.1;;;4.2;67.1
45113;BME280;30873;53.908;27.576;2023-02-28T22:01:57;1021.1;;;4.2;67.2
45113;BME280;30873;53.908;27.576;2023-02-28T22:06:20;1021.1;;;4.2;67.4
45113;BME280;30873;53.908;27.576;2023-02-28T22:11:23;1021.1;;;4.2;67.6
45113;BME280;30873;53.908;27.576;2023-02-28T22:16:31;1021.1;;;4.3;67.5
45113;BME280;30873;53.908;27.576;2023-02-28T22:21:47;1021.2;;;4.2;67.5
45113;BME280;30873;53.908;27.576;2023-02-28T22:26:57;1021.2;;;4.2;67.7
45113;BME280;30873;53.908;27.576;2023-02-28T22:31:33;1021.2;;;4.2;68
45113;BME280;30873;53.908;27.576;2023-02-28T22:36:33;1021.2;;;4.2;68.1
45113;BME280;30873;53.908;27.576;2023-02-28T22:41:31;1021.2;;;4.3;68.1
45113;BME280;30873;53.908;27.576;2023-02-28T22:46:50;1021.2;;;4.3;68.2
45113;BME280;30873;53.908;27.576;2023-02-28T22:51:59;1021.1;;;4.2;68.6
45113;BME280;30873;53.908;27.576;2023-02-28T22:56:31;1021;;;4.2;69.2
45113;BME280;30873;53.908;27.576;2023-02-28T23:01:39;1021;;;4.2;69.8
45113;BME280;30873;53.908;27.576;2023-02-28T23:06:24;1020.9;;;4.2;70.2
45113;BME280;30873;53.908;27.576;2023-02-28T23:11:48;1020.9;;;4.1;70.9
45113;BME280;30873;53.908;27.576;2023-02-28T23:16:57;1020.9;;;4.1;71.4
45113;BME280;30873;53.908;27.576;2023-02-28T23:21:42;1020.9;;;4;71.8
45113;BME280;30873;53.908;27.576;2023-02-28T23:26:29;1020.8;;;4;72.4
45113;BME280;30873;53.908;27.576;2023-02-28T23:31:27;1020.8;;;4;72.8
45113;BME280;30873;53.908;27.576;2023-02-28T23:36:53;1020.7;;;4;72.9
45113;BME280;30873;53.908;27.576;2023-02-28T23:41:53;1020.8;;;4.1;72.7
45113;BME280;30873;53.908;27.576;2023-02-28T23:46:29;1020.7;;;4.2;72.6
45113;BME280;30873;53.908;27.576;2023-02-28T23:51:23;1020.7;;;4.2;72.7
45113;BME280;30873;53.908;27.576;2023-02-28T23:56:29;1020.6;;;4.2;72.8
